Time;durP1;ratioP1;P1;durP2;ratioP2;P2;SDS_P1;SDS_P2;PMS_P1;PMS_P2;Temp;Humidity;BMP_temperature;BMP_pressure;BME280_temperature;BME280_humidity;BME280_pressure;Samples;Min_cycle;Max_cycle;Signal;HPM_P1;HPM_P2
2022/09/10 00:00:26;;;;;;;7.80;4.95;;;18.50;99.90;;;;;;5060518;28;25067;-73
2022/09/10 00:02:51;;;;;;;15.27;5.13;;;18.40;99.90;;;;;;5070494;28;25151;-74
2022/09/10 00:05:17;;;;;;;8.13;4.25;;;18.40;99.90;;;;;;5058717;28;25098;-73
2022/09/10 00:07:43;;;;;;;15.07;5.20;;;18.50;99.90;;;;;;5065079;28;25073;-73
2022/09/10 00:10:09;;;;;;;15.27;5.43;;;18.50;99.90;;;;;;5055074;28;25098;-76
2022/09/10 00:12:35;;;;;;;12.07;5.90;;;18.50;99.90;;;;;;5062984;28;25047;-75
2022/09/10 00:15:03;;;;;;;16.95;6.25;;;18.50;99.90;;;;;;5064646;28;25070;-76
2022/09/10 00:17:29;;;;;;;8.93;4.38;;;18.50;99.90;;;;;;5065159;28;25091;-75
2022/09/10 00:19:56;;;;;;;9.98;3.85;;;18.40;99.90;;;;;;5066968;28;25061;-75
2022/09/10 00:22:21;;;;;;;3.97;3.22;;;18.50;99.90;;;;;;5056889;28;25079;-75
2022/09/10 00:24:47;;;;;;;10.18;2.63;;;18.40;99.90;;;;;;5051639;28;25141;-75
2022/09/10 00:27:14;;;;;;;4.18;2.00;;;18.30;99.90;;;;;;5055335;28;25056;-75
2022/09/10 00:29:39;;;;;;;4.35;2.03;;;18.20;99.90;;;;;;5056828;28;25081;-75
2022/09/10 00:32:05;;;;;;;2.72;1.35;;;18.10;99.90;;;;;;5058093;28;25144;-75
2022/09/10 00:34:31;;;;;;;8.43;1.88;;;18.20;99.90;;;;;;5063738;28;25056;-76
2022/09/10 00:36:58;;;;;;;1.40;1.30;;;18.20;99.90;;;;;;5053885;28;25139;-76
2022/09/10 00:39:23;;;;;;;3.58;2.13;;;18.10;99.90;;;;;;5054162;28;25072;-76
2022/09/10 00:41:51;;;;;;;2.63;2.13;;;18.10;99.90;;;;;;5055834;28;25142;-76
2022/09/10 00:44:36;;;;;;;3.88;2.40;;;18.10;99.90;;;;;;5054018;28;25132;-76
2022/09/10 00:47:03;;;;;;;6.00;3.28;;;18.20;99.90;;;;;;5056602;28;25080;-75
2022/09/10 00:49:36;;;;;;;7.57;3.70;;;18.20;99.90;;;;;;5058886;28;25103;-75
2022/09/10 00:52:03;;;;;;;8.38;5.03;;;18.30;99.90;;;;;;5053505;28;25058;-77
2022/09/10 00:54:30;;;;;;;16.48;7.15;;;18.40;99.90;;;;;;5063422;28;25075;-76
2022/09/10 00:57:00;;;;;;;12.43;7.82;;;18.50;99.90;;;;;;5053039;28;25098;-75
2022/09/10 00:59:26;;;;;;;17.92;9.40;;;18.50;99.90;;;;;;5064558;28;25147;-74
2022/09/10 01:01:54;;;;;;;22.88;9.32;;;18.50;99.90;;;;;;5062183;28;25053;-75
2022/09/10 01:04:20;;;;;;;20.73;9.65;;;18.60;99.90;;;;;;5058375;28;25081;-74
2022/09/10 01:06:50;;;;;;;18.30;9.13;;;18.60;99.90;;;;;;5057627;28;25143;-75
2022/09/10 01:09:17;;;;;;;22.85;11.43;;;18.70;99.90;;;;;;5055031;28;25064;-75
2022/09/10 01:11:49;;;;;;;19.80;9.68;;;18.80;99.90;;;;;;5062666;28;25061;-74
2022/09/10 01:14:36;;;;;;;21.52;9.32;;;18.90;99.90;;;;;;5058184;28;25071;-75
2022/09/10 01:17:41;;;;;;;23.92;9.65;;;18.90;99.90;;;;;;5059247;28;25107;-76
2022/09/10 01:20:43;;;;;;;21.38;10.18;;;19.00;99.90;;;;;;5058519;28;25053;-75
2022/09/10 01:23:14;;;;;;;30.65;11.88;;;18.90;99.90;;;;;;5050064;28;25050;-75
2022/09/10 01:25:52;;;;;;;21.55;11.40;;;18.90;99.90;;;;;;5054673;28;25053;-75
2022/09/10 01:28:48;;;;;;;22.02;11.35;;;19.00;99.90;;;;;;5063691;28;25119;-73
2022/09/10 01:31:30;;;;;;;30.55;13.07;;;19.20;99.90;;;;;;5066036;28;25120;-75
2022/09/10 01:34:15;;;;;;;22.97;10.57;;;19.10;99.90;;;;;;5069068;28;25064;-76
2022/09/10 01:36:46;;;;;;;20.63;10.68;;;19.20;99.90;;;;;;5065260;28;25068;-75
2022/09/10 01:39:14;;;;;;;20.58;11.23;;;19.20;99.90;;;;;;5063777;28;25105;-74
2022/09/10 01:41:40;;;;;;;21.58;10.18;;;19.10;99.90;;;;;;5072767;28;25158;-75
2022/09/10 01:44:10;;;;;;;26.83;11.75;;;19.10;99.90;;;;;;5071301;28;25065;-76
2022/09/10 01:46:41;;;;;;;27.02;12.02;;;19.20;99.90;;;;;;5065363;28;25054;-74
2022/09/10 01:49:09;;;;;;;26.27;12.13;;;19.20;99.90;;;;;;5075160;28;25048;-73
2022/09/10 01:51:37;;;;;;;21.20;11.52;;;19.10;99.90;;;;;;5064398;28;25070;-74
2022/09/10 01:54:25;;;;;;;24.70;12.77;;;19.20;99.90;;;;;;5073343;28;25070;-75
2022/09/10 01:57:17;;;;;;;23.95;13.30;;;19.20;99.90;;;;;;5066484;28;25059;-76
2022/09/10 02:00:13;;;;;;;25.27;12.60;;;19.20;99.90;;;;;;5075667;28;25080;-78
2022/09/10 02:02:56;;;;;;;25.52;13.77;;;19.30;99.90;;;;;;5054107;28;25097;-76
2022/09/10 02:05:25;;;;;;;32.85;14.32;;;19.30;99.90;;;;;;5067150;28;25062;-80
2022/09/10 02:07:54;;;;;;;25.65;13.80;;;19.30;99.90;;;;;;5076720;28;25061;-79
2022/09/10 02:10:21;;;;;;;26.17;13.35;;;19.20;99.90;;;;;;5067530;28;25065;-76
2022/09/10 02:12:47;;;;;;;25.85;13.27;;;19.30;99.90;;;;;;5074778;28;25059;-77
2022/09/10 02:15:13;;;;;;;30.60;15.32;;;19.30;99.90;;;;;;5071388;28;25080;-78
2022/09/10 02:17:39;;;;;;;26.80;15.48;;;19.40;99.90;;;;;;5061774;28;25141;-77
2022/09/10 02:20:09;;;;;;;33.60;16.73;;;19.40;99.90;;;;;;5070520;28;25084;-76
2022/09/10 02:22:35;;;;;;;35.45;17.23;;;19.40;99.90;;;;;;5059415;28;25059;-74
2022/09/10 02:25:02;;;;;;;26.33;13.52;;;19.30;99.90;;;;;;5057415;28;25054;-76
2022/09/10 02:27:28;;;;;;;29.50;13.38;;;19.30;99.90;;;;;;5063027;28;25089;-78
2022/09/10 02:29:55;;;;;;;25.17;14.90;;;19.30;99.90;;;;;;5077849;28;25061;-82
2022/09/10 02:32:21;;;;;;;26.58;14.75;;;19.30;99.90;;;;;;5078412;28;25156;-81
2022/09/10 02:34:47;;;;;;;29.10;16.05;;;19.30;99.90;;;;;;5059602;28;25103;-79
2022/09/10 02:37:13;;;;;;;30.13;16.02;;;19.40;99.90;;;;;;5058961;28;25196;-78
2022/09/10 02:39:38;;;;;;;34.22;17.58;;;19.30;99.90;;;;;;5064948;28;25151;-79
2022/09/10 02:42:06;;;;;;;32.75;18.23;;;19.40;99.90;;;;;;5063304;28;25154;-81
2022/09/10 02:44:32;;;;;;;33.53;16.20;;;19.40;99.90;;;;;;5066208;28;25054;-78
2022/09/10 02:46:57;;;;;;;33.42;16.40;;;19.40;99.90;;;;;;5063419;28;25057;-78
2022/09/10 02:49:23;;;;;;;37.53;17.48;;;19.30;99.90;;;;;;5074914;28;25076;-79
2022/09/10 02:51:52;;;;;;;36.63;16.77;;;19.30;99.90;;;;;;5063709;28;25055;-82
2022/09/10 02:54:18;;;;;;;31.35;16.48;;;19.30;99.90;;;;;;5070935;28;25059;-82
2022/09/10 02:56:44;;;;;;;32.35;15.85;;;19.50;99.90;;;;;;5060392;28;25060;-80
2022/09/10 02:59:10;;;;;;;35.22;15.80;;;19.40;99.90;;;;;;5065152;28;25148;-78
2022/09/10 03:01:36;;;;;;;35.25;16.15;;;19.40;99.90;;;;;;5068821;28;25063;-77
2022/09/10 03:04:02;;;;;;;38.60;17.80;;;19.40;99.90;;;;;;5067050;28;25064;-79
2022/09/10 03:06:27;;;;;;;41.97;18.40;;;19.40;99.90;;;;;;5078050;28;25147;-79
2022/09/10 03:08:56;;;;;;;31.00;17.40;;;19.40;99.90;;;;;;5071692;28;25068;-78
2022/09/10 03:11:23;;;;;;;35.42;18.10;;;19.50;99.90;;;;;;5069163;28;25071;-77
2022/09/10 03:13:49;;;;;;;30.92;16.58;;;19.50;99.90;;;;;;5062165;28;25106;-79
2022/09/10 03:16:17;;;;;;;41.13;19.08;;;19.60;99.90;;;;;;5067433;28;25072;-78
2022/09/10 03:18:43;;;;;;;32.47;17.17;;;19.60;99.90;;;;;;5069083;28;25082;-78
2022/09/10 03:21:17;;;;;;;30.15;16.15;;;19.60;99.90;;;;;;5062584;28;25072;-76
2022/09/10 03:23:44;;;;;;;30.30;15.02;;;19.60;99.90;;;;;;5061196;28;25061;-77
2022/09/10 03:26:13;;;;;;;24.75;11.95;;;19.50;99.90;;;;;;5062157;28;25065;-78
2022/09/10 03:28:40;;;;;;;22.23;11.68;;;19.40;99.90;;;;;;5066101;28;25065;-77
2022/09/10 03:31:06;;;;;;;24.00;13.05;;;19.50;99.90;;;;;;5063057;28;25086;-76
2022/09/10 03:33:32;;;;;;;20.52;12.15;;;19.50;99.90;;;;;;5072796;28;25106;-77
2022/09/10 03:35:58;;;;;;;20.70;10.55;;;19.50;99.90;;;;;;5072096;28;25053;-76
2022/09/10 03:38:24;;;;;;;24.60;11.30;;;19.50;99.90;;;;;;5076844;28;25150;-77
2022/09/10 03:40:50;;;;;;;21.10;11.60;;;19.50;99.90;;;;;;5062348;28;25070;-77
2022/09/10 03:43:16;;;;;;;25.05;10.77;;;19.50;99.90;;;;;;5062283;28;25066;-76
2022/09/10 03:45:41;;;;;;;26.63;11.35;;;19.50;99.90;;;;;;5060103;28;25063;-77
2022/09/10 03:48:07;;;;;;;21.83;11.30;;;19.60;99.90;;;;;;5054943;28;25062;-72
2022/09/10 03:50:32;;;;;;;20.67;12.10;;;19.60;99.90;;;;;;5055646;28;25057;-77
2022/09/10 03:52:58;;;;;;;26.08;13.05;;;19.60;99.90;;;;;;5061667;28;25103;-77
2022/09/10 03:55:23;;;;;;;36.47;13.35;;;19.60;99.90;;;;;;5057838;28;25075;-76
2022/09/10 03:57:49;;;;;;;23.50;11.10;;;19.50;99.90;;;;;;5062619;28;25057;-77
2022/09/10 04:00:15;;;;;;;22.85;12.02;;;19.60;99.90;;;;;;5054003;28;25097;-74
2022/09/10 04:02:41;;;;;;;25.48;12.65;;;19.60;99.90;;;;;;5062103;28;25104;-76
2022/09/10 04:05:07;;;;;;;23.27;12.38;;;19.60;99.90;;;;;;5055854;28;25050;-77
2022/09/10 04:07:34;;;;;;;21.42;11.27;;;19.70;99.90;;;;;;5054395;28;25188;-73
2022/09/10 04:09:59;;;;;;;21.52;11.35;;;19.60;99.90;;;;;;5065795;28;25126;-75
2022/09/10 04:12:25;;;;;;;30.33;12.52;;;19.70;99.90;;;;;;5054057;28;25183;-75
2022/09/10 04:14:52;;;;;;;27.27;14.30;;;19.70;99.90;;;;;;5059621;28;25061;-77
2022/09/10 04:17:17;;;;;;;31.98;15.25;;;19.60;99.90;;;;;;5065378;28;25091;-76
2022/09/10 04:19:43;;;;;;;28.58;15.23;;;19.70;99.90;;;;;;5058319;28;25166;-76
2022/09/10 04:22:09;;;;;;;28.65;14.82;;;19.70;99.90;;;;;;5059166;28;25059;-76
2022/09/10 04:24:35;;;;;;;25.73;15.00;;;19.60;99.90;;;;;;5058903;28;25106;-75
2022/09/10 04:27:00;;;;;;;29.00;14.68;;;19.60;99.90;;;;;;5059775;28;25068;-75
2022/09/10 04:29:26;;;;;;;31.30;13.95;;;19.70;99.90;;;;;;5055278;28;25092;-76
2022/09/10 04:31:54;;;;;;;27.00;14.05;;;19.70;99.90;;;;;;5056812;28;25056;-76
2022/09/10 04:34:19;;;;;;;27.33;14.73;;;19.70;99.90;;;;;;5052179;28;25110;-75
2022/09/10 04:36:45;;;;;;;33.65;16.02;;;19.60;99.90;;;;;;5055987;28;25101;-77
2022/09/10 04:39:13;;;;;;;26.98;13.95;;;19.70;99.90;;;;;;5060481;28;25058;-77
2022/09/10 04:41:38;;;;;;;33.03;14.57;;;19.80;99.90;;;;;;5064669;28;25074;-75
2022/09/10 04:44:04;;;;;;;36.33;16.67;;;19.70;99.90;;;;;;5047291;28;25062;-77
2022/09/10 04:46:30;;;;;;;31.75;15.18;;;19.70;99.90;;;;;;5050921;28;25066;-76
2022/09/10 04:48:55;;;;;;;28.70;15.00;;;19.70;99.90;;;;;;5059774;28;25068;-77
2022/09/10 04:51:21;;;;;;;24.92;14.82;;;19.80;99.90;;;;;;5064574;28;25085;-78
2022/09/10 04:53:46;;;;;;;33.05;16.55;;;19.70;99.90;;;;;;5057129;28;25051;-80
2022/09/10 04:56:12;;;;;;;31.55;15.98;;;19.70;99.90;;;;;;5066152;28;25083;-79
2022/09/10 04:58:38;;;;;;;38.63;16.48;;;19.90;99.90;;;;;;5052928;28;25107;-79
2022/09/10 05:01:04;;;;;;;31.08;14.88;;;19.70;99.90;;;;;;5069587;28;25149;-76
2022/09/10 05:03:29;;;;;;;29.90;15.60;;;19.70;99.90;;;;;;5049331;28;25061;-77
2022/09/10 05:05:55;;;;;;;27.35;14.95;;;19.90;99.90;;;;;;5051903;28;25086;-78
2022/09/10 05:08:20;;;;;;;23.27;13.20;;;19.80;99.90;;;;;;5063974;28;25054;-77
2022/09/10 05:10:46;;;;;;;28.60;14.30;;;19.90;99.90;;;;;;5064378;28;25083;-77
2022/09/10 05:13:12;;;;;;;29.65;15.32;;;19.90;99.90;;;;;;5055861;28;25094;-77
2022/09/10 05:15:40;;;;;;;24.33;13.50;;;19.70;99.90;;;;;;5065945;28;25101;-76
2022/09/10 05:18:06;;;;;;;23.50;11.73;;;19.70;99.90;;;;;;5065366;28;25064;-76
2022/09/10 05:20:32;;;;;;;21.25;11.98;;;19.80;99.90;;;;;;5059551;28;25106;-77
2022/09/10 05:22:58;;;;;;;19.75;10.38;;;19.80;99.90;;;;;;5048436;28;25115;-77
2022/09/10 05:25:23;;;;;;;19.50;10.32;;;19.70;99.90;;;;;;5056974;28;25049;-77
2022/09/10 05:27:50;;;;;;;19.05;9.88;;;19.80;99.90;;;;;;5053502;28;25119;-77
2022/09/10 05:30:16;;;;;;;17.80;10.07;;;19.80;99.90;;;;;;5069615;28;25051;-77
2022/09/10 05:32:42;;;;;;;22.17;9.68;;;19.70;99.90;;;;;;5055816;28;25110;-76
2022/09/10 05:35:08;;;;;;;18.35;9.90;;;19.80;99.90;;;;;;5054043;28;25144;-77
2022/09/10 05:37:34;;;;;;;19.13;10.40;;;19.90;99.90;;;;;;5061287;28;25063;-77
2022/09/10 05:40:02;;;;;;;31.73;11.90;;;19.90;99.90;;;;;;5058081;28;25072;-77
2022/09/10 05:42:28;;;;;;;23.38;11.82;;;19.90;99.90;;;;;;5063072;28;25177;-76
2022/09/10 05:44:53;;;;;;;23.15;12.35;;;19.90;99.90;;;;;;5058862;28;25087;-76
2022/09/10 05:47:19;;;;;;;17.88;10.80;;;20.10;99.90;;;;;;5049479;28;25107;-76
2022/09/10 05:49:48;;;;;;;28.73;12.75;;;20.00;99.90;;;;;;5054744;28;25051;-76
2022/09/10 05:52:13;;;;;;;25.58;10.82;;;20.00;99.90;;;;;;5063492;28;25050;-76
2022/09/10 05:54:40;;;;;;;27.48;11.52;;;20.20;99.90;;;;;;5052888;28;25054;-74
2022/09/10 05:57:05;;;;;;;17.70;8.85;;;20.20;99.90;;;;;;5050330;28;25062;-76
2022/09/10 05:59:33;;;;;;;17.00;7.88;;;20.30;99.90;;;;;;5060702;28;25069;-75
2022/09/10 06:01:59;;;;;;;19.55;7.57;;;20.10;99.90;;;;;;5056833;28;25043;-75
2022/09/10 06:04:25;;;;;;;15.90;8.05;;;20.10;99.90;;;;;;5058309;28;25065;-75
2022/09/10 06:06:50;;;;;;;15.40;7.13;;;20.10;99.90;;;;;;5055958;28;25061;-76
2022/09/10 06:09:18;;;;;;;17.80;7.68;;;20.20;99.90;;;;;;5054012;28;25071;-76
2022/09/10 06:11:43;;;;;;;12.65;6.78;;;20.10;99.90;;;;;;5072602;28;25089;-75
2022/09/10 06:14:09;;;;;;;12.13;6.93;;;20.10;99.90;;;;;;5076255;28;25073;-75
2022/09/10 06:16:34;;;;;;;10.40;6.15;;;20.10;99.90;;;;;;5060033;28;25059;-75
2022/09/10 06:19:01;;;;;;;11.80;6.28;;;20.20;99.90;;;;;;5069488;28;25119;-76
2022/09/10 06:21:28;;;;;;;17.23;6.80;;;20.20;99.90;;;;;;5083116;28;25142;-75
2022/09/10 06:23:54;;;;;;;16.40;6.82;;;20.00;99.90;;;;;;5063880;28;25084;-76
2022/09/10 06:26:20;;;;;;;10.95;6.13;;;20.20;99.90;;;;;;5063468;28;25068;-74
2022/09/10 06:28:47;;;;;;;15.70;6.57;;;20.30;99.90;;;;;;5062204;28;25120;-75
2022/09/10 06:31:16;;;;;;;13.30;6.85;;;20.30;99.90;;;;;;5064430;28;25063;-74
2022/09/10 06:33:46;;;;;;;12.82;5.90;;;20.50;99.90;;;;;;5064915;28;25065;-74
2022/09/10 06:36:12;;;;;;;10.13;5.65;;;20.50;99.90;;;;;;5062247;28;25097;-74
2022/09/10 06:38:39;;;;;;;11.98;6.03;;;20.80;99.90;;;;;;5066211;28;25058;-75
2022/09/10 06:41:10;;;;;;;16.17;5.85;;;20.80;99.90;;;;;;5058039;28;24954;-75
2022/09/10 06:43:37;;;;;;;15.48;5.57;;;20.70;99.90;;;;;;5075772;28;25166;-74
2022/09/10 06:46:08;;;;;;;19.70;6.57;;;20.80;99.90;;;;;;5073466;28;25069;-75
2022/09/10 06:48:38;;;;;;;13.70;5.00;;;20.70;99.90;;;;;;5077797;28;25073;-76
2022/09/10 06:51:04;;;;;;;10.93;5.15;;;20.70;99.90;;;;;;5097602;28;25147;-75
2022/09/10 06:53:32;;;;;;;11.82;4.97;;;20.70;99.90;;;;;;5082175;28;25078;-75
2022/09/10 06:55:59;;;;;;;12.38;5.07;;;20.90;99.90;;;;;;5094950;28;25044;-74
2022/09/10 06:58:24;;;;;;;5.88;3.90;;;21.10;99.90;;;;;;5089232;28;25068;-74
2022/09/10 07:00:50;;;;;;;8.85;4.35;;;21.00;99.90;;;;;;5073848;28;25102;-75
2022/09/10 07:03:18;;;;;;;12.75;4.75;;;21.10;99.90;;;;;;5065070;28;25071;-76
2022/09/10 07:05:44;;;;;;;8.32;3.90;;;21.30;99.90;;;;;;5061832;28;25115;-74
2022/09/10 07:08:12;;;;;;;14.45;4.80;;;21.30;99.90;;;;;;5064914;28;25116;-77
2022/09/10 07:10:39;;;;;;;9.55;3.90;;;21.40;99.90;;;;;;5065361;28;25097;-76
2022/09/10 07:13:05;;;;;;;11.05;3.10;;;21.60;99.90;;;;;;5064881;28;24967;-78
2022/09/10 07:15:31;;;;;;;10.38;3.10;;;21.80;99.90;;;;;;5061832;28;25110;-78
2022/09/10 07:17:57;;;;;;;6.80;2.22;;;21.80;99.90;;;;;;5067564;28;25127;-78
2022/09/10 07:20:24;;;;;;;4.72;2.38;;;21.80;99.90;;;;;;5063621;28;25140;-78
2022/09/10 07:22:56;;;;;;;5.25;2.22;;;21.60;99.90;;;;;;5068947;28;25063;-77
2022/09/10 07:25:23;;;;;;;10.02;4.82;;;21.50;99.90;;;;;;5062817;28;25066;-79
2022/09/10 07:27:49;;;;;;;4.43;1.80;;;21.50;99.90;;;;;;5059318;28;25079;-77
2022/09/10 07:30:16;;;;;;;10.40;2.20;;;21.30;99.90;;;;;;5069688;28;25055;-76
2022/09/10 07:32:42;;;;;;;4.35;2.00;;;21.20;99.90;;;;;;5072265;28;25075;-77
2022/09/10 07:35:08;;;;;;;3.20;1.88;;;21.20;99.90;;;;;;5063213;28;25072;-77
2022/09/10 07:37:33;;;;;;;5.93;1.70;;;21.20;99.90;;;;;;5058171;28;25089;-76
2022/09/10 07:39:59;;;;;;;5.55;1.80;;;21.30;99.90;;;;;;5061038;28;25114;-77
2022/09/10 07:42:25;;;;;;;6.45;2.47;;;21.30;99.90;;;;;;5054355;28;25154;-76
2022/09/10 07:44:51;;;;;;;6.65;2.40;;;21.40;99.90;;;;;;5068218;28;25138;-78
2022/09/10 07:47:17;;;;;;;5.28;1.83;;;21.30;99.90;;;;;;5077390;28;25066;-75
2022/09/10 07:49:43;;;;;;;8.35;2.28;;;21.00;99.90;;;;;;5065653;28;25063;-76
2022/09/10 07:52:10;;;;;;;3.30;1.70;;;21.10;99.90;;;;;;5068414;28;25072;-77
2022/09/10 07:54:36;;;;;;;7.10;1.98;;;21.10;99.90;;;;;;5059331;28;25111;-78
2022/09/10 07:57:02;;;;;;;3.70;1.85;;;21.00;99.90;;;;;;5057905;28;25108;-76
2022/09/10 07:59:27;;;;;;;5.93;1.88;;;21.10;99.90;;;;;;5069060;28;25102;-76
2022/09/10 08:01:53;;;;;;;3.80;1.48;;;21.10;99.90;;;;;;5065056;28;25080;-76
2022/09/10 08:04:19;;;;;;;4.63;1.52;;;21.10;99.90;;;;;;5059839;28;25059;-77
2022/09/10 08:06:45;;;;;;;5.50;1.33;;;21.10;99.90;;;;;;5051064;28;25099;-77
2022/09/10 08:09:13;;;;;;;3.42;1.30;;;21.00;99.90;;;;;;5054064;28;25089;-76
2022/09/10 08:11:40;;;;;;;3.70;1.42;;;20.90;99.90;;;;;;5056407;28;25076;-77
2022/09/10 08:14:05;;;;;;;7.57;1.52;;;20.90;99.90;;;;;;5058061;28;25119;-77
2022/09/10 08:16:32;;;;;;;9.38;1.63;;;21.10;99.90;;;;;;5054232;28;25105;-77
2022/09/10 08:18:59;;;;;;;2.22;1.35;;;21.10;99.90;;;;;;5054413;28;25057;-77
2022/09/10 08:21:25;;;;;;;3.20;1.20;;;21.20;99.90;;;;;;5051246;28;25070;-74
2022/09/10 08:23:56;;;;;;;4.00;1.27;;;21.40;99.90;;;;;;5060967;28;25079;-76
2022/09/10 08:26:23;;;;;;;4.00;0.90;;;21.20;99.90;;;;;;5061183;28;25108;-76
2022/09/10 08:28:54;;;;;;;3.55;1.17;;;21.20;99.90;;;;;;5056303;28;25133;-77
2022/09/10 08:31:21;;;;;;;1.63;0.63;;;21.50;99.90;;;;;;5075861;28;25137;-76
2022/09/10 08:33:49;;;;;;;3.58;1.08;;;21.60;99.90;;;;;;5070340;28;25048;-77
2022/09/10 08:36:17;;;;;;;5.03;0.80;;;21.10;99.90;;;;;;5070091;28;25065;-75
2022/09/10 08:38:43;;;;;;;5.65;1.20;;;20.80;99.90;;;;;;5072725;28;25062;-75
2022/09/10 08:41:31;;;;;;;1.52;0.90;;;20.80;99.90;;;;;;5072366;28;25052;-76
2022/09/10 08:43:59;;;;;;;3.70;0.98;;;20.70;99.90;;;;;;5077164;28;25149;-77
2022/09/10 08:46:28;;;;;;;6.57;1.27;;;20.50;99.90;;;;;;5082190;28;25100;-76
2022/09/10 08:49:15;;;;;;;1.85;1.00;;;20.60;99.90;;;;;;5076753;28;25063;-75
2022/09/10 08:52:03;;;;;;;2.92;0.90;;;20.60;99.90;;;;;;5071547;28;25152;-75
2022/09/10 08:54:46;;;;;;;4.22;0.90;;;20.60;99.90;;;;;;5074362;28;25176;-74
2022/09/10 08:57:25;;;;;;;2.35;0.75;;;20.30;99.90;;;;;;5065860;28;25080;-73
2022/09/10 08:59:53;;;;;;;3.10;0.75;;;20.10;99.90;;;;;;5067715;28;25063;-74
2022/09/10 09:02:33;;;;;;;5.28;1.05;;;20.20;99.90;;;;;;5062386;28;25042;-73
2022/09/10 09:05:14;;;;;;;3.03;0.98;;;20.10;99.90;;;;;;5070786;28;25074;-76
2022/09/10 09:07:41;;;;;;;4.53;0.93;;;19.90;99.90;;;;;;5070161;28;25069;-76
2022/09/10 09:10:36;;;;;;;2.05;0.80;;;19.80;99.90;;;;;;5072838;28;25072;-77
2022/09/10 09:13:39;;;;;;;5.88;1.33;;;19.50;99.90;;;;;;5036185;28;25081;-73
2022/09/10 09:16:30;;;;;;;5.05;2.50;;;19.40;99.90;;;;;;5057277;28;25067;-76
2022/09/10 09:19:07;;;;;;;9.77;2.78;;;19.40;99.90;;;;;;5066835;28;25076;-76
2022/09/10 09:21:47;;;;;;;8.23;3.17;;;19.50;99.90;;;;;;5060844;28;25110;-76
2022/09/10 09:24:51;;;;;;;6.13;2.78;;;19.70;99.90;;;;;;5056835;28;25051;-75
2022/09/10 09:27:19;;;;;;;7.53;3.83;;;19.80;99.90;;;;;;5054618;28;25067;-76
2022/09/10 09:29:58;;;;;;;7.20;3.67;;;19.70;99.90;;;;;;5060597;28;25131;-79
2022/09/10 09:32:24;;;;;;;7.93;2.78;;;19.40;99.90;;;;;;5058199;28;25079;-77
2022/09/10 09:35:22;;;;;;;8.70;3.40;;;19.10;99.90;;;;;;5054680;28;25053;-73
2022/09/10 09:37:58;;;;;;;12.73;5.80;;;19.40;99.90;;;;;;5054457;28;25066;-77
2022/09/10 09:40:32;;;;;;;17.35;5.93;;;19.20;99.90;;;;;;5056685;28;25067;-74
2022/09/10 09:43:04;;;;;;;13.38;5.70;;;19.00;99.90;;;;;;5052871;28;25150;-75
2022/09/10 09:45:38;;;;;;;7.40;5.65;;;19.10;99.90;;;;;;5056697;28;25099;-77
2022/09/10 09:48:06;;;;;;;16.58;6.07;;;19.10;99.90;;;;;;5053741;28;25062;-75
2022/09/10 09:50:33;;;;;;;11.95;5.95;;;19.10;99.90;;;;;;5051108;28;25061;-74
2022/09/10 09:52:59;;;;;;;11.30;6.38;;;19.10;99.90;;;;;;5061692;28;25053;-75
2022/09/10 09:55:44;;;;;;;9.90;6.60;;;19.10;99.90;;;;;;5058832;28;25071;-76
2022/09/10 09:58:25;;;;;;;10.13;6.15;;;19.10;99.90;;;;;;5056961;28;25058;-74
2022/09/10 10:01:05;;;;;;;9.07;5.68;;;19.00;99.90;;;;;;5059743;28;25049;-78
2022/09/10 10:03:53;;;;;;;8.40;5.70;;;18.90;99.90;;;;;;5065093;28;25055;-78
2022/09/10 10:06:31;;;;;;;9.27;5.20;;;18.70;99.90;;;;;;5054408;28;25062;-74
2022/09/10 10:09:18;;;;;;;8.77;5.00;;;18.80;99.90;;;;;;5063412;28;25145;-78
2022/09/10 10:11:56;;;;;;;6.55;4.55;;;18.70;99.90;;;;;;5060308;28;25166;-76
2022/09/10 10:14:38;;;;;;;7.50;5.22;;;18.80;99.90;;;;;;5060067;28;25103;-76
2022/09/10 10:17:23;;;;;;;11.68;4.15;;;18.90;99.90;;;;;;5057087;28;25071;-75
2022/09/10 10:20:15;;;;;;;6.15;3.95;;;18.80;99.90;;;;;;5070435;28;25096;-74
2022/09/10 10:22:47;;;;;;;8.37;4.00;;;18.90;99.90;;;;;;5067433;28;25074;-74
2022/09/10 10:25:35;;;;;;;4.40;3.40;;;18.90;99.90;;;;;;5058176;28;25087;-74
2022/09/10 10:28:01;;;;;;;5.97;4.07;;;19.10;99.90;;;;;;5064835;28;25145;-75
2022/09/10 10:30:30;;;;;;;7.50;4.45;;;18.90;99.90;;;;;;5061776;28;25101;-76
2022/09/10 10:32:58;;;;;;;9.48;5.60;;;19.00;99.90;;;;;;5061994;28;25154;-76
2022/09/10 10:35:44;;;;;;;7.40;4.80;;;19.10;99.90;;;;;;5058249;28;25160;-77
2022/09/10 10:38:13;;;;;;;12.15;4.93;;;19.40;99.90;;;;;;5070222;28;25052;-76
2022/09/10 10:41:06;;;;;;;8.57;4.82;;;19.40;99.90;;;;;;5067367;28;25082;-76
2022/09/10 10:43:47;;;;;;;10.05;5.40;;;19.30;99.90;;;;;;5065251;28;25051;-76
2022/09/10 10:46:20;;;;;;;7.72;4.43;;;19.50;99.90;;;;;;5068667;28;25081;-78
2022/09/10 10:49:24;;;;;;;6.85;4.70;;;19.50;99.90;;;;;;5050179;28;25153;-75
2022/09/10 10:51:55;;;;;;;8.27;4.60;;;19.60;99.90;;;;;;5049922;28;25123;-75
2022/09/10 10:54:39;;;;;;;5.10;4.00;;;19.70;99.90;;;;;;5055731;28;25123;-76
2022/09/10 10:57:16;;;;;;;6.28;3.85;;;19.90;99.90;;;;;;5064199;28;25066;-74
2022/09/10 11:00:00;;;;;;;7.93;4.30;;;19.90;99.90;;;;;;5057668;28;25080;-75
2022/09/10 11:02:53;;;;;;;7.88;3.10;;;19.70;99.90;;;;;;5064135;28;25135;-76
2022/09/10 11:05:40;;;;;;;6.45;3.00;;;19.70;99.90;;;;;;5059471;28;25078;-77
2022/09/10 11:08:27;;;;;;;2.83;2.45;;;19.90;99.90;;;;;;5060243;28;25058;-77
2022/09/10 11:11:23;;;;;;;3.88;2.95;;;19.90;99.90;;;;;;5063619;28;25147;-77
2022/09/10 11:13:57;;;;;;;4.28;2.40;;;20.20;99.90;;;;;;5032615;28;25078;-76
2022/09/10 11:16:32;;;;;;;4.40;2.50;;;20.50;99.90;;;;;;5067038;28;25069;-75
2022/09/10 11:19:02;;;;;;;4.30;2.55;;;20.60;99.90;;;;;;5065684;28;25063;-77
2022/09/10 11:21:38;;;;;;;5.05;1.90;;;20.50;99.90;;;;;;5068757;28;25064;-78
2022/09/10 11:24:10;;;;;;;4.90;2.92;;;20.10;99.90;;;;;;5065742;28;25067;-75
2022/09/10 11:26:55;;;;;;;2.78;1.88;;;20.40;99.90;;;;;;5063600;28;25177;-77
2022/09/10 11:29:53;;;;;;;4.93;2.60;;;20.30;99.90;;;;;;5061056;28;25059;-77
2022/09/10 11:32:35;;;;;;;4.55;2.97;;;19.80;99.90;;;;;;5063353;28;25077;-77
2022/09/10 11:35:13;;;;;;;5.13;2.42;;;19.50;99.90;;;;;;5066908;28;25133;-75
2022/09/10 11:37:51;;;;;;;4.72;2.40;;;19.30;99.90;;;;;;5068615;28;25060;-76
2022/09/10 11:40:57;;;;;;;5.65;3.20;;;19.50;99.90;;;;;;5061280;28;25058;-80
2022/09/10 11:43:58;;;;;;;4.97;2.80;;;19.50;99.90;;;;;;5060111;28;25094;-78
2022/09/10 11:46:33;;;;;;;8.18;3.63;;;19.90;99.90;;;;;;5059860;28;25056;-79
2022/09/10 11:49:25;;;;;;;4.38;2.97;;;20.30;99.90;;;;;;5062101;28;25055;-73
2022/09/10 11:51:50;;;;;;;4.13;3.08;;;20.40;99.90;;;;;;5057326;28;25130;-73
2022/09/10 11:54:25;;;;;;;3.78;3.08;;;20.70;99.90;;;;;;5059680;28;25169;-77
2022/09/10 11:56:59;;;;;;;5.63;3.38;;;21.20;99.90;;;;;;5065513;28;25193;-77
2022/09/10 11:59:55;;;;;;;5.95;3.58;;;21.40;99.90;;;;;;5061217;28;25145;-77
2022/09/10 12:02:47;;;;;;;7.65;3.75;;;21.80;99.90;;;;;;5063172;28;25130;-77
2022/09/10 12:05:29;;;;;;;6.38;3.35;;;21.70;99.90;;;;;;5064880;28;25050;-78
2022/09/10 12:08:33;;;;;;;5.93;3.00;;;21.80;99.90;;;;;;5067121;28;25100;-78
2022/09/10 12:11:23;;;;;;;5.60;3.30;;;21.90;99.90;;;;;;5058525;28;25155;-78
2022/09/10 12:13:49;;;;;;;4.88;2.80;;;22.20;99.90;;;;;;5061744;28;25097;-76
2022/09/10 12:16:30;;;;;;;4.55;3.15;;;22.00;99.90;;;;;;5066297;28;25162;-78
2022/09/10 12:18:57;;;;;;;4.93;2.75;;;21.40;99.90;;;;;;5068062;28;25051;-76
2022/09/10 12:21:56;;;;;;;7.95;2.63;;;21.80;99.90;;;;;;5065274;28;25073;-78
2022/09/10 12:24:31;;;;;;;3.72;2.10;;;21.70;99.90;;;;;;5055639;28;25077;-77
2022/09/10 12:26:59;;;;;;;7.40;2.80;;;22.30;99.90;;;;;;5070695;28;25049;-76
2022/09/10 12:29:31;;;;;;;4.07;1.90;;;22.20;99.90;;;;;;5065835;28;25089;-75
2022/09/10 12:32:20;;;;;;;2.90;2.05;;;22.10;99.90;;;;;;5071375;28;25106;-78
2022/09/10 12:34:48;;;;;;;5.80;2.30;;;21.80;99.90;;;;;;5060009;28;25149;-76
2022/09/10 12:37:23;;;;;;;5.03;2.25;;;22.10;99.90;;;;;;5067858;28;25069;-79
2022/09/10 12:40:21;;;;;;;7.45;2.58;;;22.00;99.90;;;;;;5058860;28;25087;-79
2022/09/10 12:42:46;;;;;;;5.43;2.83;;;21.40;99.90;;;;;;5064176;28;25100;-79
2022/09/10 12:45:12;;;;;;;3.80;2.55;;;20.70;99.90;;;;;;5061582;28;25089;-76
2022/09/10 12:47:41;;;;;;;5.28;3.00;;;20.30;99.90;;;;;;5074355;28;25110;-76
2022/09/10 12:50:28;;;;;;;3.90;2.72;;;20.20;99.90;;;;;;5053985;28;25068;-76
2022/09/10 12:53:01;;;;;;;4.03;2.45;;;20.20;99.90;;;;;;5062724;28;25091;-78
2022/09/10 12:55:50;;;;;;;5.90;3.25;;;20.20;99.90;;;;;;5064583;28;25071;-77
2022/09/10 12:58:32;;;;;;;5.53;3.10;;;20.30;99.90;;;;;;5065355;28;25065;-77
2022/09/10 13:01:09;;;;;;;3.63;2.40;;;20.90;99.90;;;;;;5061850;28;25081;-79